sensor_id;sensor_type;location;lat;lon;timestamp;P1;durP1;ratioP1;P2;durP2;ratioP2
39846;SDS011;25517;52.422;10.782;2023-03-13T00:00:57;28.13;;;7.65;;
39846;SDS011;25517;52.422;10.782;2023-03-13T00:03:24;23.67;;;7.55;;
39846;SDS011;25517;52.422;10.782;2023-03-13T00:05:57;40.30;;;7.57;;
39846;SDS011;25517;52.422;10.782;2023-03-13T00:08:29;33.30;;;6.25;;
39846;SDS011;25517;52.422;10.782;2023-03-13T00:10:55;35.92;;;7.07;;
39846;SDS011;25517;52.422;10.782;2023-03-13T00:13:20;34.22;;;8.85;;
39846;SDS011;25517;52.422;10.782;2023-03-13T00:15:46;24.08;;;6.97;;
39846;SDS011;25517;52.422;10.782;2023-03-13T00:18:12;34.90;;;7.00;;
39846;SDS011;25517;52.422;10.782;2023-03-13T00:20:37;34.65;;;6.88;;
39846;SDS011;25517;52.422;10.782;2023-03-13T00:23:03;34.78;;;8.73;;
39846;SDS011;25517;52.422;10.782;2023-03-13T00:25:29;34.38;;;7.35;;
39846;SDS011;25517;52.422;10.782;2023-03-13T00:27:54;27.77;;;8.10;;
39846;SDS011;25517;52.422;10.782;2023-03-13T00:30:20;26.00;;;6.38;;
39846;SDS011;25517;52.422;10.782;2023-03-13T00:32:45;33.60;;;7.53;;
39846;SDS011;25517;52.422;10.782;2023-03-13T00:35:12;27.58;;;5.82;;
39846;SDS011;25517;52.422;10.782;2023-03-13T00:37:38;31.95;;;6.85;;
39846;SDS011;25517;52.422;10.782;2023-03-13T00:40:04;32.42;;;8.45;;
39846;SDS011;25517;52.422;10.782;2023-03-13T00:42:32;33.60;;;7.50;;
39846;SDS011;25517;52.422;10.782;2023-03-13T00:44:57;33.20;;;7.45;;
39846;SDS011;25517;52.422;10.782;2023-03-13T00:47:23;23.27;;;6.70;;
39846;SDS011;25517;52.422;10.782;2023-03-13T00:49:48;32.00;;;7.95;;
39846;SDS011;25517;52.422;10.782;2023-03-13T00:52:14;19.75;;;5.80;;
39846;SDS011;25517;52.422;10.782;2023-03-13T00:54:40;20.70;;;6.95;;
39846;SDS011;25517;52.422;10.782;2023-03-13T00:57:05;31.08;;;5.97;;
39846;SDS011;25517;52.422;10.782;2023-03-13T00:59:31;22.08;;;7.25;;
39846;SDS011;25517;52.422;10.782;2023-03-13T01:01:56;27.70;;;6.80;;
39846;SDS011;25517;52.422;10.782;2023-03-13T01:04:22;22.70;;;6.65;;
39846;SDS011;25517;52.422;10.782;2023-03-13T01:06:47;27.98;;;7.03;;
39846;SDS011;25517;52.422;10.782;2023-03-13T01:09:13;34.22;;;7.50;;
39846;SDS011;25517;52.422;10.782;2023-03-13T01:11:40;29.55;;;6.72;;
39846;SDS011;25517;52.422;10.782;2023-03-13T01:14:15;23.88;;;6.90;;
39846;SDS011;25517;52.422;10.782;2023-03-13T01:16:42;24.38;;;6.20;;
39846;SDS011;25517;52.422;10.782;2023-03-13T01:19:08;29.13;;;6.90;;
39846;SDS011;25517;52.422;10.782;2023-03-13T01:21:36;21.20;;;6.15;;
39846;SDS011;25517;52.422;10.782;2023-03-13T01:24:01;25.55;;;6.88;;
39846;SDS011;25517;52.422;10.782;2023-03-13T01:26:27;29.67;;;6.95;;
39846;SDS011;25517;52.422;10.782;2023-03-13T01:28:53;27.85;;;6.80;;
39846;SDS011;25517;52.422;10.782;2023-03-13T01:31:20;25.92;;;7.03;;
39846;SDS011;25517;52.422;10.782;2023-03-13T01:33:49;34.33;;;7.15;;
39846;SDS011;25517;52.422;10.782;2023-03-13T01:36:17;25.23;;;7.03;;
39846;SDS011;25517;52.422;10.782;2023-03-13T01:38:46;26.15;;;6.03;;
39846;SDS011;25517;52.422;10.782;2023-03-13T01:41:12;23.45;;;6.15;;
39846;SDS011;25517;52.422;10.782;2023-03-13T01:43:38;27.88;;;6.43;;
39846;SDS011;25517;52.422;10.782;2023-03-13T01:46:08;24.20;;;6.03;;
39846;SDS011;25517;52.422;10.782;2023-03-13T01:51:26;33.65;;;5.90;;
39846;SDS011;25517;52.422;10.782;2023-03-13T01:53:56;29.08;;;6.47;;
39846;SDS011;25517;52.422;10.782;2023-03-13T01:56:37;20.25;;;5.57;;
39846;SDS011;25517;52.422;10.782;2023-03-13T01:59:07;30.08;;;7.28;;
39846;SDS011;25517;52.422;10.782;2023-03-13T02:01:34;28.40;;;6.70;;
39846;SDS011;25517;52.422;10.782;2023-03-13T02:04:01;28.20;;;6.75;;
39846;SDS011;25517;52.422;10.782;2023-03-13T02:06:27;33.58;;;7.53;;
39846;SDS011;25517;52.422;10.782;2023-03-13T02:09:05;25.02;;;6.63;;
39846;SDS011;25517;52.422;10.782;2023-03-13T02:11:43;24.75;;;6.65;;
39846;SDS011;25517;52.422;10.782;2023-03-13T02:14:17;21.15;;;5.75;;
39846;SDS011;25517;52.422;10.782;2023-03-13T02:16:45;27.05;;;6.82;;
39846;SDS011;25517;52.422;10.782;2023-03-13T02:19:17;39.03;;;7.47;;
39846;SDS011;25517;52.422;10.782;2023-03-13T02:21:50;26.90;;;6.10;;
39846;SDS011;25517;52.422;10.782;2023-03-13T02:24:28;26.90;;;6.20;;
39846;SDS011;25517;52.422;10.782;2023-03-13T02:27:00;26.27;;;6.63;;
39846;SDS011;25517;52.422;10.782;2023-03-13T02:29:26;27.95;;;6.07;;
39846;SDS011;25517;52.422;10.782;2023-03-13T02:31:52;25.85;;;6.53;;
39846;SDS011;25517;52.422;10.782;2023-03-13T02:34:20;30.75;;;7.20;;
39846;SDS011;25517;52.422;10.782;2023-03-13T02:36:49;22.60;;;6.07;;
39846;SDS011;25517;52.422;10.782;2023-03-13T02:39:16;28.92;;;7.18;;
39846;SDS011;25517;52.422;10.782;2023-03-13T02:41:44;30.73;;;6.72;;
39846;SDS011;25517;52.422;10.782;2023-03-13T02:44:10;29.05;;;6.82;;
39846;SDS011;25517;52.422;10.782;2023-03-13T02:46:47;19.77;;;5.65;;
39846;SDS011;25517;52.422;10.782;2023-03-13T02:49:29;33.60;;;6.10;;
39846;SDS011;25517;52.422;10.782;2023-03-13T02:51:55;19.88;;;6.20;;
39846;SDS011;25517;52.422;10.782;2023-03-13T02:54:31;18.80;;;5.10;;
39846;SDS011;25517;52.422;10.782;2023-03-13T02:57:00;30.15;;;7.32;;
39846;SDS011;25517;52.422;10.782;2023-03-13T02:59:27;25.33;;;5.32;;
39846;SDS011;25517;52.422;10.782;2023-03-13T03:01:53;28.30;;;6.25;;
39846;SDS011;25517;52.422;10.782;2023-03-13T03:04:22;20.65;;;6.40;;
39846;SDS011;25517;52.422;10.782;2023-03-13T03:06:49;25.73;;;5.53;;
39846;SDS011;25517;52.422;10.782;2023-03-13T03:09:16;34.20;;;8.43;;
39846;SDS011;25517;52.422;10.782;2023-03-13T03:11:42;38.80;;;7.50;;
39846;SDS011;25517;52.422;10.782;2023-03-13T03:14:08;30.17;;;6.40;;
39846;SDS011;25517;52.422;10.782;2023-03-13T03:16:35;34.63;;;6.35;;
39846;SDS011;25517;52.422;10.782;2023-03-13T03:19:01;32.17;;;6.53;;
39846;SDS011;25517;52.422;10.782;2023-03-13T03:21:27;32.40;;;6.00;;
39846;SDS011;25517;52.422;10.782;2023-03-13T03:23:53;26.35;;;6.47;;
39846;SDS011;25517;52.422;10.782;2023-03-13T03:26:18;27.30;;;5.47;;
39846;SDS011;25517;52.422;10.782;2023-03-13T04:25:59;30.30;;;7.05;;
39846;SDS011;25517;52.422;10.782;2023-03-13T04:28:24;32.47;;;6.35;;
39846;SDS011;25517;52.422;10.782;2023-03-13T04:30:50;33.38;;;8.27;;
39846;SDS011;25517;52.422;10.782;2023-03-13T04:33:16;44.95;;;7.43;;
39846;SDS011;25517;52.422;10.782;2023-03-13T04:35:42;37.17;;;7.82;;
39846;SDS011;25517;52.422;10.782;2023-03-13T04:38:08;40.10;;;7.20;;
39846;SDS011;25517;52.422;10.782;2023-03-13T04:40:33;47.13;;;8.70;;
39846;SDS011;25517;52.422;10.782;2023-03-13T04:42:59;39.13;;;7.53;;
39846;SDS011;25517;52.422;10.782;2023-03-13T04:45:24;57.42;;;8.63;;
39846;SDS011;25517;52.422;10.782;2023-03-13T04:47:50;32.05;;;7.75;;
39846;SDS011;25517;52.422;10.782;2023-03-13T04:50:16;38.72;;;7.45;;
39846;SDS011;25517;52.422;10.782;2023-03-13T04:52:41;47.95;;;8.18;;
39846;SDS011;25517;52.422;10.782;2023-03-13T04:55:07;42.00;;;8.68;;
39846;SDS011;25517;52.422;10.782;2023-03-13T04:57:33;50.30;;;9.65;;
39846;SDS011;25517;52.422;10.782;2023-03-13T04:59:58;40.45;;;9.02;;
39846;SDS011;25517;52.422;10.782;2023-03-13T05:02:24;52.88;;;8.15;;
39846;SDS011;25517;52.422;10.782;2023-03-13T05:04:50;50.35;;;9.52;;
39846;SDS011;25517;52.422;10.782;2023-03-13T05:07:15;43.83;;;7.95;;
39846;SDS011;25517;52.422;10.782;2023-03-13T05:09:41;49.42;;;8.38;;
39846;SDS011;25517;52.422;10.782;2023-03-13T05:12:06;51.03;;;9.23;;
39846;SDS011;25517;52.422;10.782;2023-03-13T05:14:32;49.63;;;8.27;;
39846;SDS011;25517;52.422;10.782;2023-03-13T05:16:58;47.95;;;8.80;;
39846;SDS011;25517;52.422;10.782;2023-03-13T05:19:23;46.47;;;9.75;;
39846;SDS011;25517;52.422;10.782;2023-03-13T05:21:49;59.60;;;10.35;;
39846;SDS011;25517;52.422;10.782;2023-03-13T05:24:14;49.42;;;8.50;;
39846;SDS011;25517;52.422;10.782;2023-03-13T05:26:40;47.65;;;10.63;;
39846;SDS011;25517;52.422;10.782;2023-03-13T05:29:05;47.60;;;9.73;;
39846;SDS011;25517;52.422;10.782;2023-03-13T05:31:31;59.85;;;10.48;;
39846;SDS011;25517;52.422;10.782;2023-03-13T05:33:56;46.67;;;9.05;;
39846;SDS011;25517;52.422;10.782;2023-03-13T05:36:22;47.92;;;9.43;;
39846;SDS011;25517;52.422;10.782;2023-03-13T05:38:47;51.15;;;10.18;;
39846;SDS011;25517;52.422;10.782;2023-03-13T05:41:13;71.22;;;10.13;;
39846;SDS011;25517;52.422;10.782;2023-03-13T05:43:38;58.30;;;10.68;;
39846;SDS011;25517;52.422;10.782;2023-03-13T05:46:04;39.83;;;8.63;;
39846;SDS011;25517;52.422;10.782;2023-03-13T05:48:29;65.82;;;11.45;;
39846;SDS011;25517;52.422;10.782;2023-03-13T05:50:55;49.60;;;9.63;;
39846;SDS011;25517;52.422;10.782;2023-03-13T05:53:21;58.03;;;13.00;;
39846;SDS011;25517;52.422;10.782;2023-03-13T05:55:46;71.20;;;13.15;;
39846;SDS011;25517;52.422;10.782;2023-03-13T05:58:12;58.17;;;12.45;;
39846;SDS011;25517;52.422;10.782;2023-03-13T06:00:37;61.80;;;11.38;;
39846;SDS011;25517;52.422;10.782;2023-03-13T06:03:03;59.80;;;13.20;;
39846;SDS011;25517;52.422;10.782;2023-03-13T06:05:28;65.43;;;11.68;;
39846;SDS011;25517;52.422;10.782;2023-03-13T06:07:54;66.90;;;12.98;;
39846;SDS011;25517;52.422;10.782;2023-03-13T06:10:19;67.50;;;13.13;;
39846;SDS011;25517;52.422;10.782;2023-03-13T06:12:50;70.47;;;13.00;;
39846;SDS011;25517;52.422;10.782;2023-03-13T06:15:19;52.13;;;13.13;;
39846;SDS011;25517;52.422;10.782;2023-03-13T06:17:45;54.38;;;12.07;;
39846;SDS011;25517;52.422;10.782;2023-03-13T06:20:10;75.03;;;13.55;;
39846;SDS011;25517;52.422;10.782;2023-03-13T06:22:36;61.67;;;13.70;;
39846;SDS011;25517;52.422;10.782;2023-03-13T06:25:02;65.82;;;11.73;;
39846;SDS011;25517;52.422;10.782;2023-03-13T06:27:28;50.42;;;12.45;;
39846;SDS011;25517;52.422;10.782;2023-03-13T06:29:53;53.55;;;12.65;;
39846;SDS011;25517;52.422;10.782;2023-03-13T06:32:19;48.72;;;10.98;;
39846;SDS011;25517;52.422;10.782;2023-03-13T06:34:44;37.42;;;10.52;;
39846;SDS011;25517;52.422;10.782;2023-03-13T06:37:10;47.40;;;10.98;;
39846;SDS011;25517;52.422;10.782;2023-03-13T06:39:35;50.88;;;10.68;;
39846;SDS011;25517;52.422;10.782;2023-03-13T06:42:01;56.05;;;11.25;;
39846;SDS011;25517;52.422;10.782;2023-03-13T06:44:26;50.30;;;10.43;;
39846;SDS011;25517;52.422;10.782;2023-03-13T06:46:52;34.85;;;11.27;;
39846;SDS011;25517;52.422;10.782;2023-03-13T06:49:17;49.00;;;9.65;;
39846;SDS011;25517;52.422;10.782;2023-03-13T06:51:43;37.08;;;10.98;;
39846;SDS011;25517;52.422;10.782;2023-03-13T06:54:08;43.80;;;10.35;;
39846;SDS011;25517;52.422;10.782;2023-03-13T06:56:34;40.13;;;9.52;;
39846;SDS011;25517;52.422;10.782;2023-03-13T06:59:00;40.58;;;10.05;;
39846;SDS011;25517;52.422;10.782;2023-03-13T07:01:25;34.90;;;8.68;;
39846;SDS011;25517;52.422;10.782;2023-03-13T07:03:51;39.35;;;9.10;;
39846;SDS011;25517;52.422;10.782;2023-03-13T07:06:16;24.60;;;7.95;;
39846;SDS011;25517;52.422;10.782;2023-03-13T07:08:42;35.17;;;9.23;;
39846;SDS011;25517;52.422;10.782;2023-03-13T07:11:09;38.38;;;9.80;;
39846;SDS011;25517;52.422;10.782;2023-03-13T07:13:36;36.70;;;9.02;;
39846;SDS011;25517;52.422;10.782;2023-03-13T07:16:12;27.60;;;7.65;;
39846;SDS011;25517;52.422;10.782;2023-03-13T07:18:38;26.58;;;8.15;;
39846;SDS011;25517;52.422;10.782;2023-03-13T07:21:08;28.48;;;7.53;;
39846;SDS011;25517;52.422;10.782;2023-03-13T07:23:35;39.85;;;8.15;;
39846;SDS011;25517;52.422;10.782;2023-03-13T07:26:01;39.35;;;7.82;;
39846;SDS011;25517;52.422;10.782;2023-03-13T07:28:29;23.23;;;7.28;;
39846;SDS011;25517;52.422;10.782;2023-03-13T07:33:38;23.38;;;6.75;;
39846;SDS011;25517;52.422;10.782;2023-03-13T07:36:03;23.27;;;5.93;;
39846;SDS011;25517;52.422;10.782;2023-03-13T07:38:29;28.95;;;7.38;;
39846;SDS011;25517;52.422;10.782;2023-03-13T07:40:55;28.50;;;6.68;;
39846;SDS011;25517;52.422;10.782;2023-03-13T07:43:22;23.52;;;6.30;;
39846;SDS011;25517;52.422;10.782;2023-03-13T07:45:52;20.17;;;5.55;;
39846;SDS011;25517;52.422;10.782;2023-03-13T07:48:19;54.88;;;21.77;;
39846;SDS011;25517;52.422;10.782;2023-03-13T07:50:46;22.73;;;7.40;;
39846;SDS011;25517;52.422;10.782;2023-03-13T07:53:12;26.65;;;7.13;;
39846;SDS011;25517;52.422;10.782;2023-03-13T07:55:50;23.75;;;6.32;;
39846;SDS011;25517;52.422;10.782;2023-03-13T07:58:16;20.48;;;6.68;;
39846;SDS011;25517;52.422;10.782;2023-03-13T08:00:42;19.23;;;6.75;;
39846;SDS011;25517;52.422;10.782;2023-03-13T08:03:07;19.50;;;6.65;;
39846;SDS011;25517;52.422;10.782;2023-03-13T08:05:34;22.75;;;7.50;;
39846;SDS011;25517;52.422;10.782;2023-03-13T08:07:59;28.83;;;7.00;;
39846;SDS011;25517;52.422;10.782;2023-03-13T08:10:25;23.73;;;7.68;;
39846;SDS011;25517;52.422;10.782;2023-03-13T08:12:50;29.15;;;8.25;;
39846;SDS011;25517;52.422;10.782;2023-03-13T08:15:16;22.58;;;7.15;;
39846;SDS011;25517;52.422;10.782;2023-03-13T08:17:45;20.98;;;6.40;;
39846;SDS011;25517;52.422;10.782;2023-03-13T08:20:11;26.63;;;7.72;;
39846;SDS011;25517;52.422;10.782;2023-03-13T08:22:36;18.35;;;6.57;;
39846;SDS011;25517;52.422;10.782;2023-03-13T08:25:02;25.10;;;7.45;;
39846;SDS011;25517;52.422;10.782;2023-03-13T08:27:28;22.70;;;6.20;;
39846;SDS011;25517;52.422;10.782;2023-03-13T08:29:54;21.42;;;5.50;;
39846;SDS011;25517;52.422;10.782;2023-03-13T08:32:20;17.60;;;5.28;;
39846;SDS011;25517;52.422;10.782;2023-03-13T08:34:46;13.75;;;5.30;;
39846;SDS011;25517;52.422;10.782;2023-03-13T08:37:14;13.32;;;4.57;;
39846;SDS011;25517;52.422;10.782;2023-03-13T08:39:40;15.65;;;4.95;;
39846;SDS011;25517;52.422;10.782;2023-03-13T08:42:06;11.95;;;4.03;;
39846;SDS011;25517;52.422;10.782;2023-03-13T08:44:35;15.15;;;5.30;;
39846;SDS011;25517;52.422;10.782;2023-03-13T08:47:00;14.70;;;4.05;;
39846;SDS011;25517;52.422;10.782;2023-03-13T08:49:26;15.85;;;5.35;;
39846;SDS011;25517;52.422;10.782;2023-03-13T08:51:51;16.77;;;4.07;;
39846;SDS011;25517;52.422;10.782;2023-03-13T08:54:17;15.30;;;4.57;;
39846;SDS011;25517;52.422;10.782;2023-03-13T08:56:42;14.10;;;4.20;;
39846;SDS011;25517;52.422;10.782;2023-03-13T08:59:08;12.52;;;3.47;;
39846;SDS011;25517;52.422;10.782;2023-03-13T09:01:34;8.93;;;3.83;;
39846;SDS011;25517;52.422;10.782;2023-03-13T09:04:00;7.38;;;3.22;;
39846;SDS011;25517;52.422;10.782;2023-03-13T09:06:26;13.15;;;3.50;;
39846;SDS011;25517;52.422;10.782;2023-03-13T09:08:54;8.45;;;3.45;;
39846;SDS011;25517;52.422;10.782;2023-03-13T09:11:21;6.80;;;2.90;;
39846;SDS011;25517;52.422;10.782;2023-03-13T09:13:48;7.13;;;2.92;;
39846;SDS011;25517;52.422;10.782;2023-03-13T09:16:19;11.35;;;3.05;;
39846;SDS011;25517;52.422;10.782;2023-03-13T09:18:46;7.82;;;2.80;;
39846;SDS011;25517;52.422;10.782;2023-03-13T09:21:13;8.80;;;3.20;;
39846;SDS011;25517;52.422;10.782;2023-03-13T09:23:40;9.05;;;3.08;;
39846;SDS011;25517;52.422;10.782;2023-03-13T09:26:06;9.05;;;2.67;;
39846;SDS011;25517;52.422;10.782;2023-03-13T09:28:32;8.50;;;4.03;;
39846;SDS011;25517;52.422;10.782;2023-03-13T09:31:05;11.18;;;3.20;;
39846;SDS011;25517;52.422;10.782;2023-03-13T09:33:32;8.25;;;2.97;;
39846;SDS011;25517;52.422;10.782;2023-03-13T09:35:57;6.00;;;2.90;;
39846;SDS011;25517;52.422;10.782;2023-03-13T09:38:23;7.40;;;3.15;;
39846;SDS011;25517;52.422;10.782;2023-03-13T09:40:49;6.35;;;2.70;;
39846;SDS011;25517;52.422;10.782;2023-03-13T09:43:23;25.60;;;11.98;;
39846;SDS011;25517;52.422;10.782;2023-03-13T09:46:32;16.58;;;3.53;;
39846;SDS011;25517;52.422;10.782;2023-03-13T09:49:27;10.38;;;3.92;;
39846;SDS011;25517;52.422;10.782;2023-03-13T09:52:22;9.50;;;2.67;;
39846;SDS011;25517;52.422;10.782;2023-03-13T09:54:58;11.23;;;3.10;;
39846;SDS011;25517;52.422;10.782;2023-03-13T10:03:11;9.35;;;2.80;;
39846;SDS011;25517;52.422;10.782;2023-03-13T10:05:45;7.68;;;2.05;;
39846;SDS011;25517;52.422;10.782;2023-03-13T10:08:35;7.60;;;2.70;;
39846;SDS011;25517;52.422;10.782;2023-03-13T10:13:37;3.97;;;2.05;;
39846;SDS011;25517;52.422;10.782;2023-03-13T10:16:23;6.45;;;2.67;;
39846;SDS011;25517;52.422;10.782;2023-03-13T10:18:54;6.47;;;1.80;;
39846;SDS011;25517;52.422;10.782;2023-03-13T10:21:23;3.70;;;1.90;;
39846;SDS011;25517;52.422;10.782;2023-03-13T10:26:46;4.97;;;1.60;;
39846;SDS011;25517;52.422;10.782;2023-03-13T10:29:25;4.78;;;1.63;;
39846;SDS011;25517;52.422;10.782;2023-03-13T10:32:02;5.70;;;2.00;;
39846;SDS011;25517;52.422;10.782;2023-03-13T10:37:40;4.68;;;1.20;;
39846;SDS011;25517;52.422;10.782;2023-03-13T10:42:41;2.78;;;1.50;;
39846;SDS011;25517;52.422;10.782;2023-03-13T10:45:12;4.90;;;1.63;;
39846;SDS011;25517;52.422;10.782;2023-03-13T10:47:43;1.88;;;1.48;;
39846;SDS011;25517;52.422;10.782;2023-03-13T10:50:16;3.72;;;2.00;;
39846;SDS011;25517;52.422;10.782;2023-03-13T10:52:45;3.28;;;1.50;;
39846;SDS011;25517;52.422;10.782;2023-03-13T10:55:15;3.47;;;1.60;;
39846;SDS011;25517;52.422;10.782;2023-03-13T10:58:05;11.45;;;7.22;;
39846;SDS011;25517;52.422;10.782;2023-03-13T11:00:39;3.60;;;1.63;;
39846;SDS011;25517;52.422;10.782;2023-03-13T11:03:13;1.42;;;1.13;;
39846;SDS011;25517;52.422;10.782;2023-03-13T11:05:42;7.15;;;1.60;;
39846;SDS011;25517;52.422;10.782;2023-03-13T11:10:50;3.63;;;1.42;;
39846;SDS011;25517;52.422;10.782;2023-03-13T11:13:27;3.35;;;1.58;;
39846;SDS011;25517;52.422;10.782;2023-03-13T11:21:57;3.60;;;1.42;;
39846;SDS011;25517;52.422;10.782;2023-03-13T11:30:15;3.60;;;1.88;;
39846;SDS011;25517;52.422;10.782;2023-03-13T11:36:18;1.55;;;1.45;;
39846;SDS011;25517;52.422;10.782;2023-03-13T11:38:59;3.72;;;1.48;;
39846;SDS011;25517;52.422;10.782;2023-03-13T11:41:32;3.60;;;1.75;;
39846;SDS011;25517;52.422;10.782;2023-03-13T11:50:06;2.28;;;1.20;;
39846;SDS011;25517;52.422;10.782;2023-03-13T11:52:41;2.38;;;1.30;;
39846;SDS011;25517;52.422;10.782;2023-03-13T11:58:36;1.80;;;1.20;;
39846;SDS011;25517;52.422;10.782;2023-03-13T12:01:16;3.17;;;1.30;;
39846;SDS011;25517;52.422;10.782;2023-03-13T12:03:49;2.38;;;1.40;;
39846;SDS011;25517;52.422;10.782;2023-03-13T12:08:51;2.45;;;1.30;;
39846;SDS011;25517;52.422;10.782;2023-03-13T12:11:32;4.43;;;1.35;;
39846;SDS011;25517;52.422;10.782;2023-03-13T12:17:10;2.65;;;1.50;;
39846;SDS011;25517;52.422;10.782;2023-03-13T12:27:45;1.52;;;1.00;;
39846;SDS011;25517;52.422;10.782;2023-03-13T12:33:02;2.35;;;1.30;;
39846;SDS011;25517;52.422;10.782;2023-03-13T12:35:38;3.67;;;1.38;;
39846;SDS011;25517;52.422;10.782;2023-03-13T12:38:14;3.67;;;1.40;;
39846;SDS011;25517;52.422;10.782;2023-03-13T12:40:51;2.03;;;1.30;;
39846;SDS011;25517;52.422;10.782;2023-03-13T12:43:44;1.50;;;1.25;;
39846;SDS011;25517;52.422;10.782;2023-03-13T12:49:08;1.95;;;1.50;;
39846;SDS011;25517;52.422;10.782;2023-03-13T12:59:46;3.20;;;1.35;;
39846;SDS011;25517;52.422;10.782;2023-03-13T13:02:20;5.10;;;1.45;;
39846;SDS011;25517;52.422;10.782;2023-03-13T13:04:48;3.93;;;1.83;;
39846;SDS011;25517;52.422;10.782;2023-03-13T13:07:20;4.45;;;1.27;;
39846;SDS011;25517;52.422;10.782;2023-03-13T13:10:00;4.45;;;1.50;;
39846;SDS011;25517;52.422;10.782;2023-03-13T13:12:29;1.42;;;1.20;;
39846;SDS011;25517;52.422;10.782;2023-03-13T13:14:56;2.35;;;1.52;;
39846;SDS011;25517;52.422;10.782;2023-03-13T13:17:39;1.65;;;1.20;;
39846;SDS011;25517;52.422;10.782;2023-03-13T13:20:29;2.75;;;1.58;;
39846;SDS011;25517;52.422;10.782;2023-03-13T13:22:56;2.03;;;1.30;;
39846;SDS011;25517;52.422;10.782;2023-03-13T13:25:41;3.33;;;2.17;;
39846;SDS011;25517;52.422;10.782;2023-03-13T13:28:11;7.72;;;1.60;;
39846;SDS011;25517;52.422;10.782;2023-03-13T13:30:48;1.60;;;1.27;;
39846;SDS011;25517;52.422;10.782;2023-03-13T13:38:33;1.75;;;1.17;;
39846;SDS011;25517;52.422;10.782;2023-03-13T13:43:36;2.15;;;1.30;;
39846;SDS011;25517;52.422;10.782;2023-03-13T13:46:25;1.20;;;1.10;;
39846;SDS011;25517;52.422;10.782;2023-03-13T13:59:35;3.13;;;1.90;;
39846;SDS011;25517;52.422;10.782;2023-03-13T14:04:48;2.28;;;1.00;;
39846;SDS011;25517;52.422;10.782;2023-03-13T14:12:54;1.55;;;1.10;;
39846;SDS011;25517;52.422;10.782;2023-03-13T14:15:25;4.78;;;1.58;;
39846;SDS011;25517;52.422;10.782;2023-03-13T14:17:56;3.63;;;1.23;;
39846;SDS011;25517;52.422;10.782;2023-03-13T14:20:33;5.32;;;1.48;;
39846;SDS011;25517;52.422;10.782;2023-03-13T14:23:01;1.98;;;1.20;;
39846;SDS011;25517;52.422;10.782;2023-03-13T14:25:46;4.57;;;1.63;;
39846;SDS011;25517;52.422;10.782;2023-03-13T14:28:23;1.60;;;0.95;;
39846;SDS011;25517;52.422;10.782;2023-03-13T14:30:52;2.60;;;1.30;;
39846;SDS011;25517;52.422;10.782;2023-03-13T14:33:24;4.50;;;1.75;;
39846;SDS011;25517;52.422;10.782;2023-03-13T14:35:51;2.30;;;1.20;;
39846;SDS011;25517;52.422;10.782;2023-03-13T14:38:19;4.20;;;1.20;;
39846;SDS011;25517;52.422;10.782;2023-03-13T14:40:54;2.72;;;1.30;;
39846;SDS011;25517;52.422;10.782;2023-03-13T14:43:22;4.22;;;1.30;;
39846;SDS011;25517;52.422;10.782;2023-03-13T14:45:52;9.82;;;1.83;;
39846;SDS011;25517;52.422;10.782;2023-03-13T14:50:53;3.88;;;1.35;;
39846;SDS011;25517;52.422;10.782;2023-03-13T14:53:26;3.70;;;1.25;;
39846;SDS011;25517;52.422;10.782;2023-03-13T15:03:48;5.18;;;1.05;;
39846;SDS011;25517;52.422;10.782;2023-03-13T15:06:15;2.10;;;1.23;;
39846;SDS011;25517;52.422;10.782;2023-03-13T15:08:43;4.88;;;1.30;;
39846;SDS011;25517;52.422;10.782;2023-03-13T15:13:49;2.42;;;1.25;;
39846;SDS011;25517;52.422;10.782;2023-03-13T15:16:18;0.90;;;0.75;;
39846;SDS011;25517;52.422;10.782;2023-03-13T15:18:45;1.70;;;1.17;;
39846;SDS011;25517;52.422;10.782;2023-03-13T15:23:38;1.27;;;1.00;;
39846;SDS011;25517;52.422;10.782;2023-03-13T15:26:04;2.28;;;1.10;;
39846;SDS011;25517;52.422;10.782;2023-03-13T15:28:30;1.27;;;1.00;;
39846;SDS011;25517;52.422;10.782;2023-03-13T15:30:57;2.75;;;1.40;;
39846;SDS011;25517;52.422;10.782;2023-03-13T15:33:25;2.50;;;1.20;;
39846;SDS011;25517;52.422;10.782;2023-03-13T15:35:52;4.00;;;1.40;;
39846;SDS011;25517;52.422;10.782;2023-03-13T15:38:19;1.60;;;1.10;;
39846;SDS011;25517;52.422;10.782;2023-03-13T15:40:46;1.55;;;0.98;;
39846;SDS011;25517;52.422;10.782;2023-03-13T15:43:12;2.55;;;1.20;;
39846;SDS011;25517;52.422;10.782;2023-03-13T15:45:40;3.88;;;1.08;;
39846;SDS011;25517;52.422;10.782;2023-03-13T15:48:17;1.45;;;1.00;;
39846;SDS011;25517;52.422;10.782;2023-03-13T15:50:52;1.05;;;0.95;;
39846;SDS011;25517;52.422;10.782;2023-03-13T15:53:24;0.98;;;0.85;;
39846;SDS011;25517;52.422;10.782;2023-03-13T15:55:52;1.75;;;1.00;;
39846;SDS011;25517;52.422;10.782;2023-03-13T15:58:19;2.78;;;1.20;;
39846;SDS011;25517;52.422;10.782;2023-03-13T16:00:45;1.65;;;0.90;;
39846;SDS011;25517;52.422;10.782;2023-03-13T16:03:16;1.77;;;1.00;;
39846;SDS011;25517;52.422;10.782;2023-03-13T16:05:43;5.18;;;1.00;;
39846;SDS011;25517;52.422;10.782;2023-03-13T16:08:15;3.95;;;1.27;;
39846;SDS011;25517;52.422;10.782;2023-03-13T16:10:46;3.85;;;1.10;;
39846;SDS011;25517;52.422;10.782;2023-03-13T16:13:12;4.35;;;1.25;;
39846;SDS011;25517;52.422;10.782;2023-03-13T16:15:37;2.25;;;1.35;;
39846;SDS011;25517;52.422;10.782;2023-03-13T16:18:04;2.00;;;1.15;;
39846;SDS011;25517;52.422;10.782;2023-03-13T16:20:31;3.08;;;1.35;;
39846;SDS011;25517;52.422;10.782;2023-03-13T16:22:57;2.58;;;1.10;;
39846;SDS011;25517;52.422;10.782;2023-03-13T16:25:24;2.55;;;1.10;;
39846;SDS011;25517;52.422;10.782;2023-03-13T16:27:49;2.80;;;1.45;;
39846;SDS011;25517;52.422;10.782;2023-03-13T16:30:18;3.20;;;1.50;;
39846;SDS011;25517;52.422;10.782;2023-03-13T16:32:53;1.98;;;1.50;;
39846;SDS011;25517;52.422;10.782;2023-03-13T16:35:19;3.35;;;1.50;;
39846;SDS011;25517;52.422;10.782;2023-03-13T16:37:44;3.63;;;1.40;;
39846;SDS011;25517;52.422;10.782;2023-03-13T16:40:17;3.45;;;1.85;;
39846;SDS011;25517;52.422;10.782;2023-03-13T16:42:44;3.30;;;1.70;;
39846;SDS011;25517;52.422;10.782;2023-03-13T16:45:10;6.07;;;2.10;;
39846;SDS011;25517;52.422;10.782;2023-03-13T16:47:37;2.40;;;1.20;;
39846;SDS011;25517;52.422;10.782;2023-03-13T16:50:48;2.28;;;1.40;;
39846;SDS011;25517;52.422;10.782;2023-03-13T16:52:59;1.75;;;1.38;;
39846;SDS011;25517;52.422;10.782;2023-03-13T16:55:24;2.05;;;1.08;;
39846;SDS011;25517;52.422;10.782;2023-03-13T16:57:57;1.95;;;1.42;;
39846;SDS011;25517;52.422;10.782;2023-03-13T17:00:23;1.38;;;1.05;;
39846;SDS011;25517;52.422;10.782;2023-03-13T17:02:51;1.00;;;1.00;;
39846;SDS011;25517;52.422;10.782;2023-03-13T17:05:16;1.85;;;1.20;;
39846;SDS011;25517;52.422;10.782;2023-03-13T17:07:46;1.80;;;1.10;;
39846;SDS011;25517;52.422;10.782;2023-03-13T17:12:43;1.55;;;1.10;;
39846;SDS011;25517;52.422;10.782;2023-03-13T17:15:09;3.58;;;1.20;;
39846;SDS011;25517;52.422;10.782;2023-03-13T17:17:35;3.00;;;1.45;;
39846;SDS011;25517;52.422;10.782;2023-03-13T17:20:01;2.45;;;1.20;;
39846;SDS011;25517;52.422;10.782;2023-03-13T17:22:29;1.55;;;1.00;;
39846;SDS011;25517;52.422;10.782;2023-03-13T17:24:55;1.60;;;1.20;;
39846;SDS011;25517;52.422;10.782;2023-03-13T17:27:20;1.30;;;1.20;;
39846;SDS011;25517;52.422;10.782;2023-03-13T17:29:46;1.95;;;1.40;;
39846;SDS011;25517;52.422;10.782;2023-03-13T17:32:13;1.50;;;1.13;;
39846;SDS011;25517;52.422;10.782;2023-03-13T17:34:39;2.63;;;1.33;;